Bridger, Montana
Current Conditions -  °F | °C
As of 1:55 PM on Thursday 27 Nov 2014 (Local Time) from KPOY Reporting Station
Clear Clear  
Wind Chill: 40°   Ceiling: Unl
Heat Index: 46°   Visibility: 10mi
Dew Point: 27°   Wind: 15mph
Humidity: 46%   Direction: 270°W
Pressure: 29.94"   Gusts: NA
Location:  45.3°N, 108.91°W
Report Text: KPOY 272055Z AUTO 27013KT 10SM CLR 08/M03 A2994 RMK AO2
Loading
Personal Weather Stations






























Interactive Weather Map New forecast layout! Learn more

10-Day Weather Forecast

Advertisements
Track Severe Weather on mobile